Flight Track Log - Related Links

Times and Time Zones

All times are in EDT time to prevent confusion due to time zone crossing. See the UCA4838 flight status page for this flight to view local times or setup timezone preferences in your user account.

Time Position Orientation Groundspeed Altitude Reporting Facility
EDT Latitude Longitude Course Direction KTS MPH feet Rate Location/Type
Thu 09:41:37 AM 42.7339 -73.8053 207° Southwest 128 147 1,000  Level Boston Center
Thu 09:42:43 AM 42.6942 -73.8328 207° Southwest 176 203 1,900 1,181 Climbing Boston Center
Thu 09:43:44 AM 42.6500 -73.8628 207° Southwest 181 208 3,500 1,475 Climbing Boston Center
Thu 09:44:45 AM 42.6058 -73.8983 211° Southwest 174 200 4,900 1,438 Climbing Boston Center
Thu 09:45:45 AM 42.5636 -73.9314 210° Southwest 181 208 6,400 1,388 Climbing Boston Center
Thu 09:46:46 AM 42.5194 -73.9642 209° Southwest 177 204 7,700 1,240 Climbing Boston Center
Thu 09:47:46 AM 42.4772 -74.0025 214° Southwest 181 208 8,900 992 Climbing Boston Center
Thu 09:48:47 AM 42.4308 -74.0378 209° Southwest 195 224 9,700 674 Climbing Boston Center
Thu 09:49:15 AM 42.4097 -74.0486 201° Southwest 204 235 9,900 295 Climbing Boston Center
Thu 09:49:48 AM 42.3761 -74.0758 211° Southwest 218 251 10,000 -194 Climbing Boston Center
Thu 09:50:48 AM 42.3214 -74.1192 210° Southwest 238 274 9,600 -634 Descending Boston Center
Thu 09:51:51 AM 42.2603 -74.1653 209° Southwest 273 314 8,700 -829 Descending Boston Center
Thu 09:52:51 AM 42.1906 -74.2167 209° Southwest 273 314 7,900 -350 Descending Boston Center
Thu 09:53:51 AM 42.1336 -74.2569 208° Southwest 268 308 8,000 50 Climbing Boston Center
Thu 09:54:51 AM 42.0683 -74.3056 209° Southwest 255 293 8,000  Level Boston Center
Thu 09:55:51 AM 42.0133 -74.3431 207° Southwest 249 287 8,000 50 Level Boston Center
Thu 09:56:51 AM 41.9419 -74.3772 200° South 249 287 8,100 50 Climbing Boston Center
Thu 09:57:51 AM 41.8831 -74.4033 198° South 249 287 8,100  Level Boston Center
Thu 09:58:51 AM 41.8119 -74.4317 197° South 249 287 8,100  Level Boston Center
Thu 09:59:51 AM 41.7531 -74.4547 196° South 249 287 8,100 -50 Level Boston Center
Thu 10:00:51 AM 41.6797 -74.4831 196° South 249 287 8,000 -500 Descending Boston Center
Thu 10:01:51 AM 41.6186 -74.5089 198° South 249 287 7,100 -950 Descending Boston Center
Thu 10:02:51 AM 41.5431 -74.5397 197° South 255 293 6,100 450 Descending Boston Center
Thu 10:03:51 AM 41.4842 -74.5628 196° South 255 293 8,000 -33 Climbing Boston Center
Thu 10:05:55 AM 41.3500 -74.6000 192° South 241 277 6,000 -652 Descending New York TRACON
Thu 10:06:55 AM 41.2833 -74.5667 159° South 243 280 6,000  Level New York TRACON
Thu 10:07:49 AM 41.2167 -74.5500 169° South 243 280 6,000  Level New York TRACON
Thu 10:08:55 AM 41.1500 -74.5333 169° South 243 280 6,000  Level New York TRACON
Thu 10:09:55 AM 41.0833 -74.5000 159° South 239 275 6,000  Level New York TRACON
Thu 10:10:55 AM 41.0167 -74.5167 191° South 248 285 6,000  Level New York TRACON
Thu 10:11:55 AM 40.9500 -74.5333 191° South 244 281 6,000 -200 Level New York TRACON
Thu 10:12:55 AM 40.8833 -74.5667 201° Southwest 247 284 5,600 -500 Descending New York TRACON
Thu 10:13:55 AM 40.8167 -74.5500 169° South 255 293 5,000 -333 Descending New York TRACON
Thu 10:14:43 AM 40.7667 -74.5333 166° South 242 278 5,000  Level New York TRACON
Thu 10:15:49 AM 40.7000 -74.5000 159° South 237 273 5,000  Level New York TRACON
Thu 10:16:49 AM 40.6333 -74.4500 150° Southeast 244 281 5,000 -250 Level New York TRACON
Thu 10:17:49 AM 40.5833 -74.4000 143° Southeast 249 287 4,500 -900 Descending New York TRACON
Thu 10:18:49 AM 40.5500 -74.3167 118° Southeast 253 291 3,200 -1,211 Descending New York TRACON
Thu 10:19:43 AM 40.5667 -74.2500 72° East 207 238 2,200 -737 Descending New York TRACON
Thu 10:20:43 AM 40.6000 -74.2333 21° North 148 170 1,800 -550 Descending New York TRACON
Thu 10:21:43 AM 40.6333 -74.2000 37° Northeast 132 152 1,100 -700 Descending New York TRACON
Thu 10:22:43 AM 40.6667 -74.1833 21° North 122 140 400 -700 Descending New York TRACON
Thu 10:24:00 AM 40.6833 -74.1667 31° Northeast  Level FlightAware Approximate
Thu 10:31:00 AM 40.6925 -74.1687 31° Northeast  Level Estimated

Login

Don't have an account? Register now (free) for customized features, flight alerts, and more!